sensor_id;sensor_type;location;lat;lon;timestamp;pressure;altitude;pressure_sealevel;temperature;humidity
7264;BME280;3673;52.480;13.348;2024-02-15T00:02:11;101333.38;;;13.60;70.22
7264;BME280;3673;52.480;13.348;2024-02-15T00:04:37;101337.78;;;13.41;70.02
7264;BME280;3673;52.480;13.348;2024-02-15T00:07:04;101336.00;;;13.56;69.87
7264;BME280;3673;52.480;13.348;2024-02-15T00:09:31;101337.75;;;13.60;70.54
7264;BME280;3673;52.480;13.348;2024-02-15T00:11:58;101334.19;;;13.70;69.49
7264;BME280;3673;52.480;13.348;2024-02-15T00:14:25;101328.09;;;13.59;69.80
7264;BME280;3673;52.480;13.348;2024-02-15T00:16:54;101327.09;;;13.85;69.64
7264;BME280;3673;52.480;13.348;2024-02-15T00:19:21;101328.81;;;13.97;68.66
7264;BME280;3673;52.480;13.348;2024-02-15T00:21:48;101328.84;;;13.89;69.01
7264;BME280;3673;52.480;13.348;2024-02-15T00:24:15;101335.81;;;13.95;68.92
7264;BME280;3673;52.480;13.348;2024-02-15T00:26:42;101334.06;;;13.91;68.57
7264;BME280;3673;52.480;13.348;2024-02-15T00:29:09;101338.53;;;13.80;69.62
7264;BME280;3673;52.480;13.348;2024-02-15T00:31:36;101336.72;;;13.88;69.14
7264;BME280;3673;52.480;13.348;2024-02-15T00:34:06;101342.69;;;14.23;68.40
7264;BME280;3673;52.480;13.348;2024-02-15T00:36:34;101327.06;;;13.93;68.06
7264;BME280;3673;52.480;13.348;2024-02-15T00:39:01;101334.13;;;13.83;69.03
7264;BME280;3673;52.480;13.348;2024-02-15T00:41:29;101331.38;;;14.05;68.47
7264;BME280;3673;52.480;13.348;2024-02-15T00:43:59;101320.16;;;13.74;69.89
7264;BME280;3673;52.480;13.348;2024-02-15T00:46:25;101331.59;;;13.55;70.11
7264;BME280;3673;52.480;13.348;2024-02-15T00:48:54;101334.06;;;13.91;68.93
7264;BME280;3673;52.480;13.348;2024-02-15T00:51:23;101333.13;;;14.10;68.96
7264;BME280;3673;52.480;13.348;2024-02-15T00:53:50;101335.84;;;13.92;68.73
7264;BME280;3673;52.480;13.348;2024-02-15T00:56:16;101339.34;;;13.88;69.42
7264;BME280;3673;52.480;13.348;2024-02-15T00:58:44;101338.56;;;13.72;68.91
7264;BME280;3673;52.480;13.348;2024-02-15T01:01:10;101339.34;;;13.92;69.83
7264;BME280;3673;52.480;13.348;2024-02-15T01:03:37;101338.59;;;13.62;70.01
7264;BME280;3673;52.480;13.348;2024-02-15T01:06:04;101337.72;;;13.58;70.40
7264;BME280;3673;52.480;13.348;2024-02-15T01:08:33;101331.63;;;13.53;70.41
7264;BME280;3673;52.480;13.348;2024-02-15T01:11:00;101328.13;;;13.53;71.38
7264;BME280;3673;52.480;13.348;2024-02-15T01:13:27;101333.28;;;13.78;70.94
7264;BME280;3673;52.480;13.348;2024-02-15T01:15:53;101336.72;;;13.89;70.30
7264;BME280;3673;52.480;13.348;2024-02-15T01:18:20;101332.44;;;13.70;70.20
7264;BME280;3673;52.480;13.348;2024-02-15T01:20:47;101320.97;;;13.85;70.85
7264;BME280;3673;52.480;13.348;2024-02-15T01:23:13;101322.78;;;13.75;70.88
7264;BME280;3673;52.480;13.348;2024-02-15T01:25:42;101320.94;;;13.88;70.49
7264;BME280;3673;52.480;13.348;2024-02-15T01:28:08;101325.28;;;14.04;69.80
7264;BME280;3673;52.480;13.348;2024-02-15T01:30:35;101328.94;;;13.65;70.51
7264;BME280;3673;52.480;13.348;2024-02-15T01:33:03;101324.44;;;13.98;70.11
7264;BME280;3673;52.480;13.348;2024-02-15T01:35:30;101330.59;;;13.84;70.61
7264;BME280;3673;52.480;13.348;2024-02-15T01:37:57;101327.06;;;13.96;69.98
7264;BME280;3673;52.480;13.348;2024-02-15T01:40:24;101328.84;;;13.88;70.09
7264;BME280;3673;52.480;13.348;2024-02-15T01:42:52;101327.19;;;13.69;71.35
7264;BME280;3673;52.480;13.348;2024-02-15T01:45:19;101322.75;;;13.83;71.00
7264;BME280;3673;52.480;13.348;2024-02-15T01:47:47;101325.50;;;13.48;70.25
7264;BME280;3673;52.480;13.348;2024-02-15T01:50:16;101321.88;;;13.75;70.90
7264;BME280;3673;52.480;13.348;2024-02-15T01:52:45;101319.25;;;13.78;71.29
7264;BME280;3673;52.480;13.348;2024-02-15T01:55:14;101322.84;;;13.63;71.21
7264;BME280;3673;52.480;13.348;2024-02-15T01:57:44;101315.00;;;13.54;72.14
7264;BME280;3673;52.480;13.348;2024-02-15T02:00:14;101314.91;;;13.71;71.31
7264;BME280;3673;52.480;13.348;2024-02-15T02:02:45;101298.13;;;13.96;70.30
7264;BME280;3673;52.480;13.348;2024-02-15T02:05:12;101305.88;;;14.20;70.09
7264;BME280;3673;52.480;13.348;2024-02-15T02:07:39;101295.44;;;14.04;69.50
7264;BME280;3673;52.480;13.348;2024-02-15T02:10:08;101320.00;;;14.01;70.41
7264;BME280;3673;52.480;13.348;2024-02-15T02:12:36;101311.22;;;14.07;69.75
7264;BME280;3673;52.480;13.348;2024-02-15T02:15:06;101303.38;;;14.01;70.05
7264;BME280;3673;52.480;13.348;2024-02-15T02:17:34;101315.69;;;13.88;69.83
7264;BME280;3673;52.480;13.348;2024-02-15T02:20:02;101311.41;;;13.69;70.47
7264;BME280;3673;52.480;13.348;2024-02-15T02:22:33;101316.75;;;13.51;70.71
7264;BME280;3673;52.480;13.348;2024-02-15T02:25:06;101313.13;;;13.76;70.74
7264;BME280;3673;52.480;13.348;2024-02-15T02:27:34;101315.84;;;13.52;72.10
7264;BME280;3673;52.480;13.348;2024-02-15T02:30:03;101305.19;;;13.85;71.10
7264;BME280;3673;52.480;13.348;2024-02-15T02:32:32;101307.63;;;14.15;70.28
7264;BME280;3673;52.480;13.348;2024-02-15T02:35:00;101309.63;;;13.77;70.99
7264;BME280;3673;52.480;13.348;2024-02-15T02:37:27;101313.84;;;14.07;70.40
7264;BME280;3673;52.480;13.348;2024-02-15T02:39:53;101311.19;;;14.14;70.14
7264;BME280;3673;52.480;13.348;2024-02-15T02:42:22;101311.22;;;14.02;70.20
7264;BME280;3673;52.480;13.348;2024-02-15T02:44:48;101314.84;;;13.87;70.35
7264;BME280;3673;52.480;13.348;2024-02-15T02:47:15;101313.06;;;13.88;70.56
7264;BME280;3673;52.480;13.348;2024-02-15T02:49:42;101307.56;;;14.33;69.52
7264;BME280;3673;52.480;13.348;2024-02-15T02:52:09;101319.84;;;14.25;68.94
7264;BME280;3673;52.480;13.348;2024-02-15T02:54:36;101312.84;;;14.26;69.86
7264;BME280;3673;52.480;13.348;2024-02-15T02:57:02;101313.88;;;13.99;70.07
7264;BME280;3673;52.480;13.348;2024-02-15T02:59:33;101308.63;;;13.99;70.26
7264;BME280;3673;52.480;13.348;2024-02-15T03:02:00;101313.63;;;14.43;68.86
7264;BME280;3673;52.480;13.348;2024-02-15T03:04:27;101311.91;;;14.36;69.12
7264;BME280;3673;52.480;13.348;2024-02-15T03:06:54;101315.47;;;14.27;69.47
7264;BME280;3673;52.480;13.348;2024-02-15T03:09:23;101315.41;;;14.32;68.67
7264;BME280;3673;52.480;13.348;2024-02-15T03:11:55;101308.53;;;14.16;69.52
7264;BME280;3673;52.480;13.348;2024-02-15T03:14:22;101318.97;;;14.25;69.18
7264;BME280;3673;52.480;13.348;2024-02-15T03:16:50;101305.88;;;14.19;69.72
7264;BME280;3673;52.480;13.348;2024-02-15T03:19:17;101299.59;;;14.38;69.78
7264;BME280;3673;52.480;13.348;2024-02-15T03:21:43;101314.88;;;13.80;70.31
7264;BME280;3673;52.480;13.348;2024-02-15T03:24:12;101309.66;;;13.68;71.51
7264;BME280;3673;52.480;13.348;2024-02-15T03:26:38;101315.50;;;14.23;70.45
7264;BME280;3673;52.480;13.348;2024-02-15T03:29:05;101306.81;;;14.06;70.16
7264;BME280;3673;52.480;13.348;2024-02-15T03:31:33;101306.84;;;14.04;69.94
7264;BME280;3673;52.480;13.348;2024-02-15T03:34:03;101308.69;;;13.90;71.08
7264;BME280;3673;52.480;13.348;2024-02-15T03:36:30;101313.09;;;13.82;71.18
7264;BME280;3673;52.480;13.348;2024-02-15T03:38:56;101309.38;;;14.18;70.71
7264;BME280;3673;52.480;13.348;2024-02-15T03:41:26;101302.56;;;13.85;71.54
7264;BME280;3673;52.480;13.348;2024-02-15T03:43:53;101307.69;;;14.06;71.08
7264;BME280;3673;52.480;13.348;2024-02-15T03:46:20;101313.78;;;14.16;70.82
7264;BME280;3673;52.480;13.348;2024-02-15T03:48:47;101320.84;;;14.11;70.87
7264;BME280;3673;52.480;13.348;2024-02-15T03:51:17;101318.47;;;13.64;71.92
7264;BME280;3673;52.480;13.348;2024-02-15T03:53:46;101313.94;;;13.85;71.90
7264;BME280;3673;52.480;13.348;2024-02-15T03:56:13;101313.75;;;14.19;70.72
7264;BME280;3673;52.480;13.348;2024-02-15T03:58:40;101317.34;;;14.10;70.97
7264;BME280;3673;52.480;13.348;2024-02-15T04:01:06;101315.38;;;14.44;69.49
7264;BME280;3673;52.480;13.348;2024-02-15T04:03:35;101318.06;;;14.36;69.32
7264;BME280;3673;52.480;13.348;2024-02-15T04:06:02;101311.97;;;14.25;70.14
7264;BME280;3673;52.480;13.348;2024-02-15T04:08:31;101307.56;;;14.30;69.89
7264;BME280;3673;52.480;13.348;2024-02-15T04:10:58;101312.94;;;14.11;71.19
7264;BME280;3673;52.480;13.348;2024-02-15T04:13:25;101311.03;;;14.37;70.45
7264;BME280;3673;52.480;13.348;2024-02-15T04:15:51;101310.47;;;13.83;71.83
7264;BME280;3673;52.480;13.348;2024-02-15T04:18:19;101316.25;;;14.48;69.70
7264;BME280;3673;52.480;13.348;2024-02-15T04:20:45;101319.78;;;14.43;70.32
7264;BME280;3673;52.480;13.348;2024-02-15T04:23:14;101312.66;;;14.55;69.44
7264;BME280;3673;52.480;13.348;2024-02-15T04:25:42;101316.34;;;14.34;69.95
7264;BME280;3673;52.480;13.348;2024-02-15T04:28:09;101307.47;;;14.42;70.13
7264;BME280;3673;52.480;13.348;2024-02-15T04:30:36;101308.44;;;14.26;70.02
7264;BME280;3673;52.480;13.348;2024-02-15T04:33:07;101309.16;;;14.54;69.03
7264;BME280;3673;52.480;13.348;2024-02-15T04:35:33;101319.03;;;14.19;69.99
7264;BME280;3673;52.480;13.348;2024-02-15T04:38:01;101306.63;;;14.39;69.98
7264;BME280;3673;52.480;13.348;2024-02-15T04:40:29;101314.53;;;14.40;69.74
7264;BME280;3673;52.480;13.348;2024-02-15T04:42:57;101310.97;;;14.46;69.75
7264;BME280;3673;52.480;13.348;2024-02-15T04:45:24;101306.63;;;14.39;69.76
7264;BME280;3673;52.480;13.348;2024-02-15T04:47:51;101311.91;;;14.33;69.91
7264;BME280;3673;52.480;13.348;2024-02-15T04:50:19;101311.25;;;13.99;70.56
7264;BME280;3673;52.480;13.348;2024-02-15T04:52:46;101307.59;;;14.21;70.66
7264;BME280;3673;52.480;13.348;2024-02-15T04:55:13;101307.53;;;14.35;70.33
7264;BME280;3673;52.480;13.348;2024-02-15T04:57:41;101320.84;;;14.11;70.82
7264;BME280;3673;52.480;13.348;2024-02-15T05:00:10;101313.69;;;14.37;69.38
7264;BME280;3673;52.480;13.348;2024-02-15T05:02:38;101318.97;;;14.31;70.42
7264;BME280;3673;52.480;13.348;2024-02-15T05:05:06;101321.31;;;14.70;69.02
7264;BME280;3673;52.480;13.348;2024-02-15T05:07:34;101309.28;;;14.31;69.83
7264;BME280;3673;52.480;13.348;2024-02-15T05:10:03;101311.06;;;14.34;70.02
7264;BME280;3673;52.480;13.348;2024-02-15T05:12:32;101311.00;;;14.43;69.90
7264;BME280;3673;52.480;13.348;2024-02-15T05:14:59;101320.72;;;14.29;70.40
7264;BME280;3673;52.480;13.348;2024-02-15T05:17:27;101318.59;;;14.78;69.06
7264;BME280;3673;52.480;13.348;2024-02-15T05:19:55;101319.63;;;14.59;69.00
7264;BME280;3673;52.480;13.348;2024-02-15T05:22:24;101328.28;;;14.77;68.72
7264;BME280;3673;52.480;13.348;2024-02-15T05:24:54;101321.22;;;14.78;68.80
7264;BME280;3673;52.480;13.348;2024-02-15T05:27:21;101320.66;;;14.44;69.37
7264;BME280;3673;52.480;13.348;2024-02-15T05:29:49;101319.72;;;14.50;70.17
7264;BME280;3673;52.480;13.348;2024-02-15T05:32:18;101327.72;;;14.28;69.22
7264;BME280;3673;52.480;13.348;2024-02-15T05:34:47;101319.56;;;14.71;69.39
7264;BME280;3673;52.480;13.348;2024-02-15T05:37:13;101311.78;;;14.53;69.88
7264;BME280;3673;52.480;13.348;2024-02-15T05:39:41;101327.56;;;14.56;69.73
7264;BME280;3673;52.480;13.348;2024-02-15T05:42:08;101322.19;;;14.68;69.33
7264;BME280;3673;52.480;13.348;2024-02-15T05:44:36;101327.31;;;14.84;68.38
7264;BME280;3673;52.480;13.348;2024-02-15T05:47:03;101328.41;;;14.59;69.52
7264;BME280;3673;52.480;13.348;2024-02-15T05:49:30;101319.66;;;14.56;69.97
7264;BME280;3673;52.480;13.348;2024-02-15T05:51:58;101330.84;;;14.82;68.93
7264;BME280;3673;52.480;13.348;2024-02-15T05:54:25;101327.50;;;14.62;68.93
7264;BME280;3673;52.480;13.348;2024-02-15T05:56:52;101319.53;;;14.74;68.58
7264;BME280;3673;52.480;13.348;2024-02-15T05:59:21;101318.81;;;14.54;69.53
7264;BME280;3673;52.480;13.348;2024-02-15T06:01:47;101324.84;;;14.65;69.68
7264;BME280;3673;52.480;13.348;2024-02-15T06:04:14;101316.88;;;14.75;69.01
7264;BME280;3673;52.480;13.348;2024-02-15T06:06:42;101329.28;;;14.63;69.88
7264;BME280;3673;52.480;13.348;2024-02-15T06:09:10;101325.75;;;14.64;69.03
7264;BME280;3673;52.480;13.348;2024-02-15T06:11:37;101327.38;;;14.78;69.39
7264;BME280;3673;52.480;13.348;2024-02-15T06:14:04;101319.72;;;14.48;69.52
7264;BME280;3673;52.480;13.348;2024-02-15T06:16:31;101330.13;;;14.65;69.07
7264;BME280;3673;52.480;13.348;2024-02-15T06:18:58;101325.88;;;14.49;70.01
7264;BME280;3673;52.480;13.348;2024-02-15T06:21:25;101335.41;;;14.63;69.11
7264;BME280;3673;52.480;13.348;2024-02-15T06:23:53;101329.22;;;14.69;69.49
7264;BME280;3673;52.480;13.348;2024-02-15T06:26:22;101333.56;;;14.71;69.21
7264;BME280;3673;52.480;13.348;2024-02-15T06:28:49;101333.59;;;14.70;69.68
7264;BME280;3673;52.480;13.348;2024-02-15T06:31:33;101336.38;;;14.52;69.03
7264;BME280;3673;52.480;13.348;2024-02-15T06:34:18;101335.59;;;14.31;69.96
7264;BME280;3673;52.480;13.348;2024-02-15T06:37:03;101341.66;;;14.50;69.58
7264;BME280;3673;52.480;13.348;2024-02-15T06:39:47;101344.06;;;14.79;69.28
7264;BME280;3673;52.480;13.348;2024-02-15T06:42:16;101352.91;;;14.70;69.33
7264;BME280;3673;52.480;13.348;2024-02-15T06:44:47;101344.34;;;14.41;69.62
7264;BME280;3673;52.480;13.348;2024-02-15T06:47:14;101350.47;;;14.48;69.71
7264;BME280;3673;52.480;13.348;2024-02-15T06:49:45;101350.25;;;14.72;69.59
7264;BME280;3673;52.480;13.348;2024-02-15T06:52:15;101355.56;;;14.66;69.57
7264;BME280;3673;52.480;13.348;2024-02-15T06:54:42;101351.88;;;14.89;68.68
7264;BME280;3673;52.480;13.348;2024-02-15T06:57:09;101355.59;;;14.64;68.99
7264;BME280;3673;52.480;13.348;2024-02-15T06:59:37;101362.47;;;14.83;68.95
7264;BME280;3673;52.480;13.348;2024-02-15T07:02:05;101359.09;;;14.65;68.89
7264;BME280;3673;52.480;13.348;2024-02-15T07:04:33;101368.69;;;14.72;70.07
7264;BME280;3673;52.480;13.348;2024-02-15T07:07:00;101366.91;;;14.77;69.01
7264;BME280;3673;52.480;13.348;2024-02-15T07:09:28;101359.06;;;14.71;68.80
7264;BME280;3673;52.480;13.348;2024-02-15T07:11:55;101370.25;;;14.95;68.83
7264;BME280;3673;52.480;13.348;2024-02-15T07:14:23;101360.75;;;14.81;68.67
7264;BME280;3673;52.480;13.348;2024-02-15T07:16:52;101367.56;;;15.02;68.57
7264;BME280;3673;52.480;13.348;2024-02-15T07:19:22;101369.41;;;14.92;68.87
7264;BME280;3673;52.480;13.348;2024-02-15T07:21:48;101369.22;;;15.12;68.58
7264;BME280;3673;52.480;13.348;2024-02-15T07:24:16;101366.06;;;14.73;69.42
7264;BME280;3673;52.480;13.348;2024-02-15T07:26:43;101361.59;;;14.81;68.83
7264;BME280;3673;52.480;13.348;2024-02-15T07:29:10;101358.81;;;15.00;67.86
7264;BME280;3673;52.480;13.348;2024-02-15T07:31:37;101367.97;;;14.49;69.96
7264;BME280;3673;52.480;13.348;2024-02-15T07:34:05;101365.84;;;15.01;69.25
7264;BME280;3673;52.480;13.348;2024-02-15T07:36:32;101367.75;;;14.79;69.48
7264;BME280;3673;52.480;13.348;2024-02-15T07:38:59;101371.16;;;14.91;68.75
7264;BME280;3673;52.480;13.348;2024-02-15T07:41:28;101365.88;;;14.91;69.14
7264;BME280;3673;52.480;13.348;2024-02-15T07:43:56;101369.50;;;14.78;69.18
7264;BME280;3673;52.480;13.348;2024-02-15T07:46:24;101369.47;;;14.84;69.15
7264;BME280;3673;52.480;13.348;2024-02-15T07:48:51;101369.69;;;14.57;69.96
7264;BME280;3673;52.480;13.348;2024-02-15T07:51:20;101364.28;;;14.75;69.20
7264;BME280;3673;52.480;13.348;2024-02-15T07:53:48;101369.47;;;14.87;68.38
7264;BME280;3673;52.480;13.348;2024-02-15T07:56:16;101364.69;;;15.27;68.32
7264;BME280;3673;52.480;13.348;2024-02-15T07:58:47;101350.84;;;15.06;68.47
7264;BME280;3673;52.480;13.348;2024-02-15T08:01:14;101368.25;;;15.23;68.09
7264;BME280;3673;52.480;13.348;2024-02-15T08:03:42;101368.50;;;14.98;68.83
7264;BME280;3673;52.480;13.348;2024-02-15T08:06:10;101378.97;;;15.04;68.19
7264;BME280;3673;52.480;13.348;2024-02-15T08:08:42;101366.34;;;15.36;67.61
7264;BME280;3673;52.480;13.348;2024-02-15T08:11:11;101366.63;;;15.10;68.35
7264;BME280;3673;52.480;13.348;2024-02-15T08:13:43;101376.25;;;15.11;69.11
7264;BME280;3673;52.480;13.348;2024-02-15T08:16:10;101369.22;;;15.12;68.36
7264;BME280;3673;52.480;13.348;2024-02-15T08:18:38;101369.13;;;15.22;68.33
7264;BME280;3673;52.480;13.348;2024-02-15T08:21:05;101370.00;;;15.21;67.95
7264;BME280;3673;52.480;13.348;2024-02-15T08:23:32;101368.84;;;15.53;67.80
7264;BME280;3673;52.480;13.348;2024-02-15T08:26:00;101377.47;;;15.67;66.97
7264;BME280;3673;52.480;13.348;2024-02-15T08:28:27;101377.44;;;15.68;67.20
7264;BME280;3673;52.480;13.348;2024-02-15T08:30:54;101379.03;;;15.84;66.38
7264;BME280;3673;52.480;13.348;2024-02-15T08:33:21;101378.72;;;15.29;67.73
7264;BME280;3673;52.480;13.348;2024-02-15T08:35:49;101377.22;;;15.04;68.17
7264;BME280;3673;52.480;13.348;2024-02-15T08:38:16;101369.44;;;15.76;66.75
7264;BME280;3673;52.480;13.348;2024-02-15T08:40:44;101376.69;;;15.59;67.43
7264;BME280;3673;52.480;13.348;2024-02-15T08:43:14;101372.25;;;15.62;66.94
7264;BME280;3673;52.480;13.348;2024-02-15T08:45:42;101380.88;;;15.76;66.90
7264;BME280;3673;52.480;13.348;2024-02-15T08:48:08;101375.94;;;15.41;68.11
7264;BME280;3673;52.480;13.348;2024-02-15T08:50:35;101374.25;;;15.34;67.75
7264;BME280;3673;52.480;13.348;2024-02-15T08:53:03;101371.72;;;15.25;68.61
7264;BME280;3673;52.480;13.348;2024-02-15T08:55:32;101367.38;;;15.21;68.63
7264;BME280;3673;52.480;13.348;2024-02-15T08:58:01;101382.09;;;15.42;67.96
7264;BME280;3673;52.480;13.348;2024-02-15T09:00:31;101370.94;;;15.17;68.70
7264;BME280;3673;52.480;13.348;2024-02-15T09:02:57;101379.34;;;15.57;67.85
7264;BME280;3673;52.480;13.348;2024-02-15T09:05:24;101378.41;;;15.61;67.52
7264;BME280;3673;52.480;13.348;2024-02-15T09:07:51;101376.78;;;15.51;68.11
7264;BME280;3673;52.480;13.348;2024-02-15T09:10:18;101377.59;;;15.58;67.42
7264;BME280;3673;52.480;13.348;2024-02-15T09:12:48;101372.19;;;15.67;67.14
7264;BME280;3673;52.480;13.348;2024-02-15T09:15:15;101368.81;;;15.56;67.33
7264;BME280;3673;52.480;13.348;2024-02-15T09:17:44;101372.06;;;15.77;67.31
7264;BME280;3673;52.480;13.348;2024-02-15T09:20:12;101375.50;;;15.84;66.49
7264;BME280;3673;52.480;13.348;2024-02-15T09:22:41;101375.91;;;16.21;66.01
7264;BME280;3673;52.480;13.348;2024-02-15T09:25:09;101385.06;;;15.94;66.77
7264;BME280;3673;52.480;13.348;2024-02-15T09:27:35;101381.78;;;15.72;67.32
7264;BME280;3673;52.480;13.348;2024-02-15T09:30:04;101386.41;;;15.52;67.46
7264;BME280;3673;52.480;13.348;2024-02-15T09:32:33;101372.19;;;15.67;67.57
7264;BME280;3673;52.480;13.348;2024-02-15T09:35:03;101375.47;;;15.87;67.10
7264;BME280;3673;52.480;13.348;2024-02-15T09:37:33;101384.50;;;15.65;67.12
7264;BME280;3673;52.480;13.348;2024-02-15T09:40:00;101384.22;;;15.90;67.06
7264;BME280;3673;52.480;13.348;2024-02-15T09:42:32;101389.16;;;16.15;66.26
7264;BME280;3673;52.480;13.348;2024-02-15T09:45:00;101388.16;;;16.25;65.24
7264;BME280;3673;52.480;13.348;2024-02-15T09:47:33;101386.53;;;16.16;66.30
7264;BME280;3673;52.480;13.348;2024-02-15T09:50:04;101394.91;;;15.78;67.14
7264;BME280;3673;52.480;13.348;2024-02-15T09:52:33;101399.44;;;16.37;65.88
7264;BME280;3673;52.480;13.348;2024-02-15T09:55:03;101395.63;;;15.94;66.30
7264;BME280;3673;52.480;13.348;2024-02-15T09:57:30;101395.03;;;16.35;65.53
7264;BME280;3673;52.480;13.348;2024-02-15T09:59:58;101395.59;;;16.61;64.62
7264;BME280;3673;52.480;13.348;2024-02-15T10:02:26;101403.91;;;16.32;66.02
7264;BME280;3673;52.480;13.348;2024-02-15T10:04:53;101406.13;;;15.97;66.80
7264;BME280;3673;52.480;13.348;2024-02-15T10:07:23;101404.22;;;16.08;66.78
7264;BME280;3673;52.480;13.348;2024-02-15T10:09:50;101400.69;;;16.11;66.54
7264;BME280;3673;52.480;13.348;2024-02-15T10:12:17;101396.91;;;16.30;65.62
7264;BME280;3673;52.480;13.348;2024-02-15T10:14:49;101397.53;;;16.47;65.36
7264;BME280;3673;52.480;13.348;2024-02-15T10:17:19;101386.44;;;16.22;65.63
7264;BME280;3673;52.480;13.348;2024-02-15T10:20:03;101398.50;;;16.40;65.63
7264;BME280;3673;52.480;13.348;2024-02-15T10:22:32;101391.63;;;16.30;65.83
7264;BME280;3673;52.480;13.348;2024-02-15T10:25:11;101393.84;;;16.59;65.52
7264;BME280;3673;52.480;13.348;2024-02-15T10:27:39;101394.72;;;16.61;65.26
7264;BME280;3673;52.480;13.348;2024-02-15T10:30:18;101399.19;;;16.57;65.59
7264;BME280;3673;52.480;13.348;2024-02-15T10:32:45;101391.63;;;16.88;64.38
7264;BME280;3673;52.480;13.348;2024-02-15T10:35:19;101393.47;;;16.84;64.26
7264;BME280;3673;52.480;13.348;2024-02-15T10:37:49;101389.63;;;17.02;63.91
7264;BME280;3673;52.480;13.348;2024-02-15T10:40:20;101390.25;;;16.64;64.97
7264;BME280;3673;52.480;13.348;2024-02-15T10:42:47;101385.44;;;16.89;64.46
7264;BME280;3673;52.480;13.348;2024-02-15T10:45:15;101387.53;;;16.69;64.60
7264;BME280;3673;52.480;13.348;2024-02-15T10:47:44;101388.47;;;16.65;64.57
7264;BME280;3673;52.480;13.348;2024-02-15T10:50:12;101383.63;;;16.94;64.46
7264;BME280;3673;52.480;13.348;2024-02-15T10:52:51;101388.69;;;17.06;63.84
7264;BME280;3673;52.480;13.348;2024-02-15T10:55:40;101382.03;;;16.84;64.67
7264;BME280;3673;52.480;13.348;2024-02-15T10:58:07;101382.69;;;16.95;64.57
7264;BME280;3673;52.480;13.348;2024-02-15T11:00:35;101393.69;;;17.21;63.64
7264;BME280;3673;52.480;13.348;2024-02-15T11:03:08;101397.38;;;17.14;63.77
7264;BME280;3673;52.480;13.348;2024-02-15T11:05:39;101388.22;;;17.32;63.40
7264;BME280;3673;52.480;13.348;2024-02-15T11:08:09;101386.84;;;17.11;64.09
7264;BME280;3673;52.480;13.348;2024-02-15T11:10:37;101384.56;;;17.39;63.44
7264;BME280;3673;52.480;13.348;2024-02-15T11:13:09;101380.47;;;17.69;62.36
7264;BME280;3673;52.480;13.348;2024-02-15T11:15:41;101378.44;;;17.37;63.51
7264;BME280;3673;52.480;13.348;2024-02-15T11:18:07;101379.81;;;17.10;63.31
7264;BME280;3673;52.480;13.348;2024-02-15T11:20:48;101365.81;;;17.51;63.21
7264;BME280;3673;52.480;13.348;2024-02-15T11:23:26;101374.56;;;17.58;62.51
7264;BME280;3673;52.480;13.348;2024-02-15T11:25:53;101375.78;;;17.84;62.15
7264;BME280;3673;52.480;13.348;2024-02-15T11:28:43;101367.94;;;17.32;63.01
7264;BME280;3673;52.480;13.348;2024-02-15T11:31:52;101370.50;;;17.83;61.77
7264;BME280;3673;52.480;13.348;2024-02-15T11:34:42;101360.72;;;17.86;61.12
7264;BME280;3673;52.480;13.348;2024-02-15T11:37:09;101363.50;;;17.79;61.56
7264;BME280;3673;52.480;13.348;2024-02-15T11:39:44;101367.94;;;17.78;61.67
7264;BME280;3673;52.480;13.348;2024-02-15T11:42:28;101374.84;;;17.41;62.54
7264;BME280;3673;52.480;13.348;2024-02-15T11:45:03;101369.63;;;17.35;63.10
7264;BME280;3673;52.480;13.348;2024-02-15T11:47:33;101374.56;;;17.07;63.08
7264;BME280;3673;52.480;13.348;2024-02-15T11:50:04;101368.00;;;17.29;63.34
7264;BME280;3673;52.480;13.348;2024-02-15T11:52:31;101365.91;;;17.46;62.55
7264;BME280;3673;52.480;13.348;2024-02-15T11:55:07;101367.56;;;17.52;62.72
7264;BME280;3673;52.480;13.348;2024-02-15T11:57:36;101372.84;;;17.05;63.89
7264;BME280;3673;52.480;13.348;2024-02-15T12:00:21;101373.16;;;17.37;63.42
7264;BME280;3673;52.480;13.348;2024-02-15T12:03:06;101373.41;;;17.23;63.69
7264;BME280;3673;52.480;13.348;2024-02-15T12:05:51;101366.22;;;16.81;64.48
7264;BME280;3673;52.480;13.348;2024-02-15T12:08:35;101360.13;;;17.25;63.69
7264;BME280;3673;52.480;13.348;2024-02-15T12:11:21;101355.69;;;17.27;63.01
7264;BME280;3673;52.480;13.348;2024-02-15T12:14:06;101357.47;;;17.25;63.61
7264;BME280;3673;52.480;13.348;2024-02-15T12:17:01;101357.78;;;17.10;63.83
7264;BME280;3673;52.480;13.348;2024-02-15T12:19:48;101343.63;;;17.12;64.29
7264;BME280;3673;52.480;13.348;2024-02-15T12:22:18;101348.03;;;17.12;64.24
7264;BME280;3673;52.480;13.348;2024-02-15T12:24:54;101341.59;;;17.26;63.29
7264;BME280;3673;52.480;13.348;2024-02-15T12:27:23;101338.91;;;17.29;63.30
7264;BME280;3673;52.480;13.348;2024-02-15T12:29:54;101339.84;;;17.27;63.42
7264;BME280;3673;52.480;13.348;2024-02-15T12:32:22;101333.41;;;17.38;62.92
7264;BME280;3673;52.480;13.348;2024-02-15T12:34:49;101342.34;;;17.33;62.68
7264;BME280;3673;52.480;13.348;2024-02-15T12:37:18;101336.97;;;17.82;61.75
7264;BME280;3673;52.480;13.348;2024-02-15T12:39:46;101325.75;;;17.71;61.80
7264;BME280;3673;52.480;13.348;2024-02-15T12:42:14;101326.03;;;17.57;62.05
7264;BME280;3673;52.480;13.348;2024-02-15T12:44:45;101320.22;;;17.81;61.64
7264;BME280;3673;52.480;13.348;2024-02-15T12:47:22;101327.78;;;17.55;62.30
7264;BME280;3673;52.480;13.348;2024-02-15T12:49:50;101316.66;;;17.39;62.79
7264;BME280;3673;52.480;13.348;2024-02-15T12:52:34;101318.13;;;17.56;62.08
7264;BME280;3673;52.480;13.348;2024-02-15T12:55:13;101318.59;;;17.76;61.69
7264;BME280;3673;52.480;13.348;2024-02-15T12:57:41;101312.72;;;18.01;61.07
7264;BME280;3673;52.480;13.348;2024-02-15T13:00:13;101311.38;;;17.82;60.82
7264;BME280;3673;52.480;13.348;2024-02-15T13:02:44;101314.25;;;18.12;60.55
7264;BME280;3673;52.480;13.348;2024-02-15T13:05:12;101311.81;;;18.04;60.73
7264;BME280;3673;52.480;13.348;2024-02-15T13:07:39;101309.63;;;17.38;61.85
7264;BME280;3673;52.480;13.348;2024-02-15T13:10:07;101302.16;;;17.60;61.51
7264;BME280;3673;52.480;13.348;2024-02-15T13:12:35;101305.09;;;18.26;59.94